Time;durP1;ratioP1;P1;durP2;ratioP2;P2;SDS_P1;SDS_P2;PMS_P1;PMS_P2;Temp;Humidity;BMP_temperature;BMP_pressure;BME280_temperature;BME280_humidity;BME280_pressure;Samples;Min_cycle;Max_cycle;Signal;HPM_P1;HPM_P2
2021/04/04 00:02:05;;;;;;;7.32;4.30;;;4.60;54.30;;;;;;5041816;28;20249;-83
2021/04/04 00:04:31;;;;;;;7.97;4.50;;;4.50;53.80;;;;;;5046074;28;20230;-82
2021/04/04 00:06:58;;;;;;;4.47;3.60;;;4.40;53.70;;;;;;5045256;28;20200;-83
2021/04/04 00:09:26;;;;;;;4.47;3.45;;;4.30;54.20;;;;;;5038018;28;20199;-83
2021/04/04 00:11:52;;;;;;;4.03;3.50;;;4.50;54.50;;;;;;5042655;28;20602;-82
2021/04/04 00:14:19;;;;;;;4.53;3.72;;;4.70;54.10;;;;;;5043996;28;20216;-83
2021/04/04 00:16:46;;;;;;;6.78;4.68;;;4.60;54.20;;;;;;5044322;28;20251;-83
2021/04/04 00:19:12;;;;;;;7.70;4.43;;;4.60;54.50;;;;;;5045544;28;20635;-82
2021/04/04 00:21:39;;;;;;;4.80;3.83;;;4.50;54.70;;;;;;5050650;28;20203;-83
2021/04/04 00:24:06;;;;;;;5.75;3.70;;;4.50;55.60;;;;;;5048323;28;20196;-83
2021/04/04 00:26:34;;;;;;;5.22;3.85;;;4.40;55.90;;;;;;5049290;28;20257;-83
2021/04/04 00:29:01;;;;;;;4.75;3.90;;;4.40;55.70;;;;;;5034585;28;20211;-82
2021/04/04 00:31:27;;;;;;;3.67;3.38;;;4.30;55.60;;;;;;5034057;28;20255;-82
2021/04/04 00:33:54;;;;;;;4.32;3.90;;;4.50;55.60;;;;;;5034306;28;20204;-83
2021/04/04 00:36:20;;;;;;;4.85;3.78;;;4.40;55.50;;;;;;5052022;28;20216;-83
2021/04/04 00:38:47;;;;;;;5.28;4.78;;;4.10;55.60;;;;;;5037911;28;20200;-83
2021/04/04 00:41:13;;;;;;;4.65;4.00;;;3.90;55.70;;;;;;5049586;28;20309;-84
2021/04/04 00:43:40;;;;;;;4.10;3.70;;;3.80;55.80;;;;;;5037551;28;20309;-83
2021/04/04 00:46:07;;;;;;;5.82;3.42;;;4.00;56.40;;;;;;5053142;28;20222;-83
2021/04/04 00:48:33;;;;;;;5.65;4.30;;;4.00;56.20;;;;;;5051619;28;20204;-83
2021/04/04 00:51:00;;;;;;;5.07;4.43;;;4.10;55.90;;;;;;5050913;28;20203;-83
2021/04/04 00:53:26;;;;;;;4.57;4.10;;;4.20;56.30;;;;;;5052507;28;20223;-83
2021/04/04 00:55:53;;;;;;;4.13;3.75;;;4.30;55.50;;;;;;5033730;28;20548;-83
2021/04/04 00:58:20;;;;;;;3.63;3.30;;;4.50;55.70;;;;;;5053511;28;20235;-82
2021/04/04 01:00:47;;;;;;;3.95;3.65;;;4.60;56.10;;;;;;5045929;28;20584;-83
2021/04/04 01:03:15;;;;;;;5.07;4.18;;;4.50;55.70;;;;;;5056895;28;20187;-83
2021/04/04 01:05:45;;;;;;;5.65;3.97;;;4.40;55.00;;;;;;5052921;28;20270;-83
2021/04/04 01:08:12;;;;;;;9.73;4.38;;;4.30;56.00;;;;;;5050156;28;20196;-83
2021/04/04 01:10:43;;;;;;;5.60;4.35;;;4.10;56.50;;;;;;5051155;28;20204;-82
2021/04/04 01:13:20;;;;;;;4.22;3.80;;;4.20;57.00;;;;;;5048274;28;20207;-83
2021/04/04 01:15:55;;;;;;;3.53;3.20;;;4.10;56.70;;;;;;5061872;28;20263;-83
2021/04/04 01:18:29;;;;;;;6.47;3.80;;;4.20;56.40;;;;;;5046285;28;20298;-83
2021/04/04 01:20:58;;;;;;;4.57;3.40;;;4.30;55.70;;;;;;5039688;28;20673;-83
2021/04/04 01:24:02;;;;;;;4.70;3.60;;;4.20;56.20;;;;;;5057433;28;20199;-83
2021/04/04 01:26:44;;;;;;;4.20;3.40;;;4.20;55.80;;;;;;5032479;28;20692;-83
2021/04/04 01:29:14;;;;;;;3.78;2.90;;;4.10;56.20;;;;;;5031794;28;20200;-83
2021/04/04 01:31:44;;;;;;;5.82;3.90;;;4.20;56.10;;;;;;5062150;28;20286;-84
2021/04/04 01:34:14;;;;;;;4.65;4.10;;;4.20;56.00;;;;;;5058512;28;20242;-83
2021/04/04 01:36:42;;;;;;;5.05;3.40;;;4.10;55.60;;;;;;5040501;28;20216;-83
2021/04/04 01:39:12;;;;;;;5.22;4.10;;;4.20;55.70;;;;;;5039936;28;20204;-82
2021/04/04 01:41:42;;;;;;;7.00;4.00;;;4.10;55.60;;;;;;5040303;28;20249;-83
2021/04/04 01:44:12;;;;;;;8.30;3.90;;;4.10;55.60;;;;;;5050388;28;20216;-83
2021/04/04 01:46:43;;;;;;;5.13;3.88;;;4.10;55.90;;;;;;5037776;28;20207;-83
2021/04/04 01:49:11;;;;;;;5.30;3.78;;;4.10;56.10;;;;;;5046478;28;20200;-83
2021/04/04 01:51:39;;;;;;;6.95;4.10;;;4.00;56.20;;;;;;5051652;28;20669;-83
2021/04/04 01:54:08;;;;;;;4.95;3.25;;;3.80;56.50;;;;;;5049682;28;20219;-83
2021/04/04 01:56:37;;;;;;;8.13;3.60;;;3.90;56.50;;;;;;5050169;28;20228;-83
2021/04/04 01:59:05;;;;;;;3.20;2.90;;;3.90;56.20;;;;;;5036637;28;20216;-83
2021/04/04 02:01:34;;;;;;;6.28;3.95;;;3.80;56.80;;;;;;5042444;28;20201;-83
2021/04/04 02:04:07;;;;;;;9.73;3.63;;;3.70;56.80;;;;;;5034400;28;20206;-82
2021/04/04 02:06:35;;;;;;;4.53;3.25;;;3.70;56.60;;;;;;5051433;28;20203;-82
2021/04/04 02:09:05;;;;;;;4.20;3.80;;;3.60;56.60;;;;;;5049468;28;20196;-83
2021/04/04 02:11:33;;;;;;;4.53;3.58;;;3.50;57.10;;;;;;5048503;28;20204;-83
2021/04/04 02:14:05;;;;;;;3.50;3.08;;;3.50;57.80;;;;;;5034370;28;20602;-83
2021/04/04 02:16:34;;;;;;;5.60;3.65;;;3.70;56.20;;;;;;5034854;28;20760;-83
2021/04/04 02:19:02;;;;;;;3.30;3.00;;;3.80;56.20;;;;;;5031040;28;20199;-83
2021/04/04 02:21:29;;;;;;;4.75;4.35;;;3.80;56.00;;;;;;5045968;28;20260;-83
2021/04/04 02:23:56;;;;;;;5.22;3.80;;;3.70;56.30;;;;;;5064064;28;20204;-83
2021/04/04 02:26:22;;;;;;;3.97;3.63;;;3.70;56.10;;;;;;5051088;28;20196;-83
2021/04/04 02:28:50;;;;;;;5.15;3.92;;;3.60;57.00;;;;;;5046378;28;20303;-83
2021/04/04 02:31:18;;;;;;;6.55;4.35;;;3.70;56.80;;;;;;5047331;28;20606;-83
2021/04/04 02:33:53;;;;;;;3.47;2.72;;;3.50;56.70;;;;;;5030606;28;20196;-83
2021/04/04 02:36:21;;;;;;;9.68;3.58;;;3.60;56.90;;;;;;5030653;28;20203;-83
2021/04/04 02:38:51;;;;;;;3.72;3.40;;;3.70;56.70;;;;;;5029253;28;20200;-83
2021/04/04 02:41:18;;;;;;;3.65;3.20;;;3.60;56.30;;;;;;5031202;28;20193;-84
2021/04/04 02:43:49;;;;;;;3.55;3.25;;;3.60;56.20;;;;;;5044946;28;20208;-82
2021/04/04 02:46:17;;;;;;;7.47;4.07;;;3.60;56.40;;;;;;5030594;28;20235;-82
2021/04/04 02:48:47;;;;;;;3.30;3.00;;;3.70;55.70;;;;;;5033294;28;20235;-82
2021/04/04 02:51:21;;;;;;;8.98;3.97;;;3.70;55.10;;;;;;5046547;28;20250;-82
2021/04/04 02:53:51;;;;;;;7.25;3.40;;;3.70;55.50;;;;;;5041973;28;20204;-82
2021/04/04 02:56:19;;;;;;;4.18;3.50;;;3.70;56.00;;;;;;5051116;28;20269;-83
2021/04/04 02:58:50;;;;;;;6.47;3.72;;;3.40;56.20;;;;;;5033809;28;20184;-83
2021/04/04 03:01:17;;;;;;;4.60;3.20;;;3.30;56.80;;;;;;5051151;28;20204;-82
2021/04/04 03:03:47;;;;;;;3.30;3.00;;;3.40;56.50;;;;;;5040394;28;20228;-83
2021/04/04 03:06:17;;;;;;;3.92;3.53;;;3.60;56.50;;;;;;5031157;28;20598;-83
2021/04/04 03:08:47;;;;;;;7.55;3.47;;;3.60;56.10;;;;;;5049942;28;20224;-82
2021/04/04 03:11:15;;;;;;;4.35;3.85;;;3.50;55.50;;;;;;5038362;28;20739;-82
2021/04/04 03:13:46;;;;;;;5.53;3.47;;;3.40;56.20;;;;;;5047757;28;20189;-82
2021/04/04 03:16:13;;;;;;;10.40;3.30;;;3.50;56.50;;;;;;5031863;28;20197;-82
2021/04/04 03:18:43;;;;;;;6.53;3.85;;;3.50;56.30;;;;;;5047669;28;20690;-82
2021/04/04 03:21:11;;;;;;;6.05;3.95;;;3.50;56.40;;;;;;5036693;28;20193;-81
2021/04/04 03:23:43;;;;;;;4.95;3.55;;;3.40;56.50;;;;;;5049758;28;20254;-83
2021/04/04 03:26:12;;;;;;;4.47;3.70;;;3.50;56.40;;;;;;5030875;28;20196;-82
2021/04/04 03:28:41;;;;;;;5.32;3.72;;;3.50;56.50;;;;;;5041403;28;20200;-82
2021/04/04 03:31:14;;;;;;;6.85;3.35;;;3.50;56.70;;;;;;5050109;28;20592;-82
2021/04/04 03:33:42;;;;;;;4.43;3.20;;;3.30;56.50;;;;;;5033993;28;20196;-83
2021/04/04 03:36:13;;;;;;;3.30;2.60;;;3.00;57.10;;;;;;5030301;28;20254;-82
2021/04/04 03:38:42;;;;;;;6.80;4.05;;;3.30;57.00;;;;;;5032364;28;20282;-82
2021/04/04 03:41:12;;;;;;;5.63;3.58;;;3.40;56.20;;;;;;5050728;28;20290;-82
2021/04/04 03:43:41;;;;;;;7.28;3.33;;;3.40;55.50;;;;;;5033622;28;20197;-82
2021/04/04 03:46:13;;;;;;;5.13;3.25;;;3.40;55.20;;;;;;5050445;28;20204;-84
2021/04/04 03:48:44;;;;;;;3.70;3.40;;;3.30;55.50;;;;;;5032301;28;20203;-82
2021/04/04 03:51:12;;;;;;;4.25;3.08;;;3.30;55.50;;;;;;5039862;28;20207;-82
2021/04/04 03:53:44;;;;;;;7.32;4.53;;;3.30;56.10;;;;;;5050656;28;20303;-83
2021/04/04 03:56:19;;;;;;;5.13;3.85;;;3.40;56.30;;;;;;5034206;28;20283;-83
2021/04/04 03:58:49;;;;;;;7.53;3.83;;;3.40;56.30;;;;;;5031370;28;20723;-82
2021/04/04 04:01:21;;;;;;;3.72;2.85;;;3.40;56.00;;;;;;5030262;28;20582;-83
2021/04/04 04:03:51;;;;;;;3.53;3.22;;;3.40;56.30;;;;;;5048519;28;20246;-82
2021/04/04 04:06:18;;;;;;;3.50;3.20;;;3.10;56.40;;;;;;5047538;28;20283;-83
2021/04/04 04:08:47;;;;;;;3.20;2.90;;;3.20;56.70;;;;;;5049769;28;20201;-83
2021/04/04 04:11:15;;;;;;;3.92;3.45;;;3.00;57.40;;;;;;5037883;28;20223;-83
2021/04/04 04:13:43;;;;;;;3.97;3.15;;;3.00;56.90;;;;;;5047265;28;20200;-82
2021/04/04 04:16:12;;;;;;;5.20;3.65;;;3.20;56.40;;;;;;5036652;28;20207;-83
2021/04/04 04:18:42;;;;;;;6.75;3.40;;;3.20;56.00;;;;;;5053732;28;21020;-83
2021/04/04 04:21:12;;;;;;;4.38;3.13;;;3.20;56.50;;;;;;5035968;28;20204;-82
2021/04/04 04:23:39;;;;;;;4.05;3.50;;;3.10;55.80;;;;;;5051175;28;20673;-83
2021/04/04 04:26:10;;;;;;;3.88;3.42;;;3.30;55.90;;;;;;5051911;28;20249;-83
2021/04/04 04:28:39;;;;;;;6.97;4.13;;;3.30;55.70;;;;;;5043281;28;20316;-82
2021/04/04 04:31:11;;;;;;;8.00;4.90;;;3.20;55.80;;;;;;5051507;28;20199;-83
2021/04/04 04:33:43;;;;;;;4.93;3.65;;;3.20;55.80;;;;;;5035632;28;20200;-83
2021/04/04 04:36:11;;;;;;;3.72;3.42;;;3.20;55.70;;;;;;5052244;28;20196;-82
2021/04/04 04:38:40;;;;;;;4.07;3.55;;;3.10;55.80;;;;;;5039799;28;20247;-83
2021/04/04 04:41:10;;;;;;;4.40;4.00;;;3.20;55.80;;;;;;5036604;28;20204;-83
2021/04/04 04:43:40;;;;;;;5.22;3.65;;;3.30;55.70;;;;;;5035792;28;20252;-82
2021/04/04 04:46:08;;;;;;;4.72;4.25;;;3.20;55.30;;;;;;5059996;28;20198;-82
2021/04/04 04:48:36;;;;;;;5.93;4.40;;;3.20;55.60;;;;;;5061849;28;20295;-83
2021/04/04 04:51:03;;;;;;;6.25;4.30;;;3.20;55.70;;;;;;5060295;28;20223;-82
2021/04/04 04:53:31;;;;;;;10.25;4.05;;;3.20;55.80;;;;;;5059210;28;20199;-83
2021/04/04 04:56:01;;;;;;;4.90;3.42;;;3.00;56.00;;;;;;5063651;28;20220;-82
2021/04/04 04:58:30;;;;;;;6.40;3.80;;;3.10;56.60;;;;;;5062904;28;20320;-83
2021/04/04 05:00:59;;;;;;;9.85;4.20;;;3.20;56.30;;;;;;5060768;28;20253;-82
2021/04/04 05:03:26;;;;;;;3.58;2.95;;;3.20;55.80;;;;;;5058957;28;20196;-83
2021/04/04 05:05:57;;;;;;;3.78;3.05;;;3.10;56.30;;;;;;5071699;28;20199;-83
2021/04/04 05:08:26;;;;;;;6.95;3.47;;;2.70;56.80;;;;;;5063663;28;20200;-83
2021/04/04 05:10:54;;;;;;;3.78;3.47;;;2.80;57.50;;;;;;5063271;28;20358;-83
2021/04/04 05:13:22;;;;;;;7.28;4.43;;;3.00;57.20;;;;;;5057180;28;20304;-83
2021/04/04 05:15:57;;;;;;;10.10;6.00;;;3.10;57.20;;;;;;5063806;28;20200;-82
2021/04/04 05:18:25;;;;;;;5.72;4.55;;;3.10;57.00;;;;;;5058326;28;20480;-83
2021/04/04 05:20:52;;;;;;;4.28;3.75;;;3.10;57.40;;;;;;5062938;28;20196;-82
2021/04/04 05:23:23;;;;;;;7.13;4.75;;;3.10;57.40;;;;;;5058530;28;20223;-82
2021/04/04 05:25:51;;;;;;;10.20;4.35;;;2.90;57.50;;;;;;5061063;28;20279;-82
2021/04/04 05:28:19;;;;;;;11.25;5.35;;;2.70;58.00;;;;;;5059543;28;20912;-81
2021/04/04 05:30:46;;;;;;;11.07;4.72;;;2.60;58.30;;;;;;5059221;28;20202;-82
2021/04/04 05:33:14;;;;;;;5.97;4.45;;;2.50;58.40;;;;;;5055767;28;20245;-81
2021/04/04 05:35:43;;;;;;;7.85;5.30;;;2.60;59.10;;;;;;5053215;28;20535;-82
2021/04/04 05:38:11;;;;;;;8.80;4.95;;;2.80;58.90;;;;;;5043528;28;20228;-83
2021/04/04 05:40:37;;;;;;;4.03;3.63;;;2.80;58.60;;;;;;5059144;28;20856;-82
2021/04/04 05:43:12;;;;;;;8.15;5.03;;;3.00;58.80;;;;;;5061665;28;20265;-84
2021/04/04 05:45:48;;;;;;;3.95;3.42;;;3.20;58.50;;;;;;5068439;28;20202;-85
2021/04/04 05:48:32;;;;;;;4.18;3.15;;;3.40;57.90;;;;;;5072898;28;20262;-85
2021/04/04 05:51:22;;;;;;;7.15;3.90;;;3.60;57.30;;;;;;5072687;28;20628;-85
2021/04/04 05:54:00;;;;;;;8.55;3.85;;;3.60;57.10;;;;;;5072187;28;20211;-84
2021/04/04 05:56:31;;;;;;;6.07;3.78;;;3.70;57.30;;;;;;5073324;28;20596;-85
2021/04/04 05:59:02;;;;;;;5.75;3.83;;;3.80;57.60;;;;;;5073491;28;20199;-85
2021/04/04 06:02:15;;;;;;;3.40;3.13;;;3.80;57.40;;;;;;5072833;28;20214;-85
2021/04/04 06:04:54;;;;;;;28.25;15.85;;;4.10;57.10;;;;;;5063201;28;20335;-85
2021/04/04 06:07:53;;;;;;;12.35;8.50;;;4.10;56.90;;;;;;5073135;28;20195;-85
2021/04/04 06:10:26;;;;;;;6.70;4.55;;;4.00;57.20;;;;;;5073561;28;20195;-85
2021/04/04 06:13:19;;;;;;;5.55;4.07;;;4.20;57.30;;;;;;5061173;28;20650;-85
2021/04/04 06:15:57;;;;;;;5.13;4.13;;;4.10;56.90;;;;;;5055315;28;20195;-85
2021/04/04 06:18:35;;;;;;;7.63;3.85;;;4.20;57.60;;;;;;5054380;28;20250;-85
2021/04/04 06:21:11;;;;;;;5.28;4.00;;;4.10;57.20;;;;;;5060639;28;20196;-85
2021/04/04 06:23:46;;;;;;;4.30;3.63;;;4.00;57.30;;;;;;5057811;28;20195;-84
2021/04/04 06:26:32;;;;;;;4.22;3.83;;;4.10;56.90;;;;;;5063636;28;20189;-87
2021/04/04 06:29:08;;;;;;;7.22;3.67;;;4.00;56.40;;;;;;5055983;28;20194;-86
2021/04/04 06:31:47;;;;;;;3.60;3.30;;;4.10;56.60;;;;;;5060374;28;20230;-84
2021/04/04 06:34:21;;;;;;;5.63;3.63;;;4.30;57.20;;;;;;5056545;28;20246;-85
2021/04/04 06:37:09;;;;;;;4.43;3.40;;;4.50;56.60;;;;;;5067311;28;20202;-87
2021/04/04 06:40:05;;;;;;;4.40;3.97;;;4.70;56.40;;;;;;5072152;28;20191;-85
2021/04/04 06:42:47;;;;;;;7.47;4.38;;;4.70;55.60;;;;;;5057005;28;20199;-85
2021/04/04 06:45:23;;;;;;;7.68;6.00;;;4.90;55.10;;;;;;5056238;28;20199;-86
2021/04/04 06:48:05;;;;;;;10.02;4.97;;;5.10;54.80;;;;;;5063159;28;20209;-83
2021/04/04 06:50:36;;;;;;;4.50;3.72;;;5.30;54.30;;;;;;5065190;28;20207;-83
2021/04/04 06:53:19;;;;;;;3.90;3.50;;;5.40;53.80;;;;;;5059702;28;20188;-84
2021/04/04 06:55:56;;;;;;;9.32;5.20;;;5.70;53.70;;;;;;5059585;28;20204;-84
2021/04/04 06:58:43;;;;;;;5.90;4.07;;;5.70;53.00;;;;;;5059570;28;20220;-85
2021/04/04 07:01:22;;;;;;;5.93;3.53;;;5.70;52.60;;;;;;5060593;28;20184;-85
2021/04/04 07:03:56;;;;;;;3.97;3.55;;;6.00;52.80;;;;;;5060317;28;20195;-84
2021/04/04 07:06:54;;;;;;;5.38;3.67;;;6.20;52.60;;;;;;5055901;28;20196;-85
2021/04/04 07:09:51;;;;;;;7.07;3.95;;;6.10;51.90;;;;;;5051288;28;20200;-85
2021/04/04 07:12:37;;;;;;;6.47;4.55;;;6.20;52.10;;;;;;5036472;28;20216;-85
2021/04/04 07:15:12;;;;;;;7.65;4.57;;;6.60;52.30;;;;;;5050276;28;20207;-84
2021/04/04 07:17:58;;;;;;;6.82;4.35;;;6.70;51.80;;;;;;5051041;28;20227;-84
2021/04/04 07:20:40;;;;;;;6.88;4.38;;;6.60;52.10;;;;;;5051195;28;20212;-84
2021/04/04 07:23:33;;;;;;;9.15;4.78;;;6.70;51.60;;;;;;5062854;28;20244;-84
2021/04/04 07:26:11;;;;;;;5.90;4.25;;;6.70;51.30;;;;;;5060517;28;20205;-84
2021/04/04 07:29:05;;;;;;;5.80;4.80;;;6.60;51.30;;;;;;5061793;28;20267;-85
2021/04/04 07:31:39;;;;;;;6.60;4.07;;;6.50;51.90;;;;;;5059810;28;20227;-84
2021/04/04 07:34:13;;;;;;;6.22;4.50;;;6.70;52.40;;;;;;5061433;28;20263;-84
2021/04/04 07:36:51;;;;;;;8.05;4.50;;;6.90;51.60;;;;;;5061785;28;20191;-84
2021/04/04 07:39:28;;;;;;;12.13;6.80;;;7.00;51.00;;;;;;5079495;28;20552;-84
2021/04/04 07:42:07;;;;;;;9.30;5.45;;;7.10;51.40;;;;;;5063717;28;20253;-83
2021/04/04 07:44:40;;;;;;;8.50;4.80;;;7.40;51.20;;;;;;5064507;28;20760;-84
2021/04/04 07:47:15;;;;;;;7.75;4.75;;;7.80;51.10;;;;;;5074496;28;20211;-84
2021/04/04 07:49:45;;;;;;;7.85;4.70;;;7.80;50.50;;;;;;5056175;28;20218;-84
2021/04/04 07:52:18;;;;;;;8.00;4.30;;;7.70;49.90;;;;;;5059550;28;20196;-84
2021/04/04 07:54:55;;;;;;;9.40;4.78;;;7.40;50.20;;;;;;5072291;28;20578;-84
2021/04/04 07:57:30;;;;;;;11.25;4.68;;;7.20;50.40;;;;;;5073800;28;20258;-84
2021/04/04 08:00:02;;;;;;;7.95;4.50;;;7.20;51.00;;;;;;5072403;28;20218;-84
2021/04/04 08:02:34;;;;;;;9.10;4.57;;;7.50;51.30;;;;;;5077522;28;20214;-84
2021/04/04 08:05:03;;;;;;;5.70;4.47;;;7.80;50.80;;;;;;5077642;28;20199;-84
2021/04/04 08:07:33;;;;;;;6.75;4.68;;;7.80;50.20;;;;;;5076673;28;20195;-85
2021/04/04 08:10:07;;;;;;;6.65;4.75;;;7.60;50.30;;;;;;5074474;28;20660;-84
2021/04/04 08:12:48;;;;;;;10.25;5.60;;;7.50;50.50;;;;;;5073178;28;20792;-83
2021/04/04 08:15:21;;;;;;;4.35;3.95;;;7.90;51.00;;;;;;5075568;28;20233;-84
2021/04/04 08:17:47;;;;;;;9.63;5.68;;;7.90;50.20;;;;;;5075554;28;20229;-84
2021/04/04 08:20:22;;;;;;;5.38;4.07;;;7.80;50.00;;;;;;5076240;28;20203;-84
2021/04/04 08:22:54;;;;;;;7.28;5.03;;;8.10;50.60;;;;;;5061836;28;20580;-84
2021/04/04 08:25:28;;;;;;;7.63;5.50;;;8.50;50.70;;;;;;5056003;28;20307;-85
2021/04/04 08:28:00;;;;;;;9.85;5.60;;;8.90;49.80;;;;;;5055777;28;20204;-84
2021/04/04 08:30:30;;;;;;;9.85;5.30;;;9.30;49.70;;;;;;5057591;28;20215;-85
2021/04/04 08:33:03;;;;;;;7.82;5.25;;;8.70;48.50;;;;;;5055791;28;20208;-85
2021/04/04 08:35:34;;;;;;;11.23;5.50;;;8.60;49.20;;;;;;5057461;28;20212;-84
2021/04/04 08:38:08;;;;;;;5.82;4.97;;;8.60;48.90;;;;;;5059324;28;20310;-84
2021/04/04 08:40:36;;;;;;;6.38;5.00;;;8.50;49.00;;;;;;5055589;28;20207;-85
2021/04/04 08:43:05;;;;;;;6.15;4.95;;;9.00;49.80;;;;;;5062956;28;20199;-85
2021/04/04 08:45:37;;;;;;;8.18;5.35;;;9.50;48.60;;;;;;5060354;28;20196;-84
2021/04/04 08:48:06;;;;;;;5.93;5.38;;;9.50;48.40;;;;;;5058739;28;20199;-85
2021/04/04 08:50:35;;;;;;;6.15;5.35;;;9.70;48.20;;;;;;5066974;28;20211;-85
2021/04/04 08:53:14;;;;;;;7.20;5.85;;;9.80;48.20;;;;;;5060086;28;20192;-86
2021/04/04 08:55:43;;;;;;;6.80;5.38;;;9.80;46.50;;;;;;5060980;28;20217;-86
2021/04/04 08:58:15;;;;;;;9.50;5.15;;;9.90;46.40;;;;;;5063059;28;20615;-88
2021/04/04 09:00:42;;;;;;;9.15;5.22;;;9.90;46.90;;;;;;5061611;28;20203;-85
2021/04/04 09:03:16;;;;;;;7.07;5.63;;;9.70;46.00;;;;;;5061520;28;20226;-86
2021/04/04 09:05:43;;;;;;;5.80;5.03;;;9.10;46.70;;;;;;5061081;28;20690;-87
2021/04/04 09:08:13;;;;;;;6.65;5.50;;;9.30;47.70;;;;;;5061451;28;20198;-87
2021/04/04 09:10:45;;;;;;;6.43;5.40;;;9.90;47.40;;;;;;5061110;28;20254;-86
2021/04/04 09:13:15;;;;;;;8.80;5.63;;;10.50;46.00;;;;;;5062290;28;20202;-88
2021/04/04 09:15:48;;;;;;;6.95;4.60;;;11.00;45.30;;;;;;5055709;28;20265;-82
2021/04/04 09:18:16;;;;;;;6.15;4.55;;;11.40;45.00;;;;;;5065395;28;20218;-83
2021/04/04 09:20:46;;;;;;;5.73;4.30;;;11.80;43.30;;;;;;5064961;28;20208;-83
2021/04/04 09:23:14;;;;;;;4.50;4.10;;;12.20;43.00;;;;;;5055453;28;20629;-84
2021/04/04 09:25:49;;;;;;;4.72;4.00;;;12.10;41.70;;;;;;5061398;28;20609;-83
2021/04/04 09:28:40;;;;;;;4.85;3.78;;;12.20;41.30;;;;;;5054695;28;20218;-87
2021/04/04 09:31:16;;;;;;;4.17;3.60;;;11.70;40.70;;;;;;5058490;28;20215;-85
2021/04/04 09:33:44;;;;;;;5.10;4.10;;;11.90;41.40;;;;;;5053514;28;20941;-85
2021/04/04 09:36:10;;;;;;;4.50;4.10;;;12.10;40.60;;;;;;5054806;28;20667;-85
2021/04/04 09:38:48;;;;;;;4.27;3.70;;;12.50;41.20;;;;;;5053403;28;20638;-86
2021/04/04 09:41:16;;;;;;;8.67;4.97;;;12.40;39.90;;;;;;5066049;28;20609;-83
2021/04/04 09:44:02;;;;;;;6.10;4.73;;;12.30;39.90;;;;;;5064586;28;21205;-85
2021/04/04 09:46:29;;;;;;;5.70;5.20;;;11.50;40.00;;;;;;5070007;28;20613;-83
2021/04/04 09:48:55;;;;;;;4.53;3.83;;;11.00;40.80;;;;;;5071378;28;21158;-84
2021/04/04 09:51:22;;;;;;;7.10;4.00;;;11.10;41.80;;;;;;5071788;28;21014;-85
2021/04/04 09:53:51;;;;;;;4.33;3.80;;;11.50;41.00;;;;;;5072232;28;20639;-85
2021/04/04 09:56:19;;;;;;;4.77;3.90;;;11.90;40.20;;;;;;5071414;28;20670;-85
2021/04/04 09:58:47;;;;;;;4.53;3.60;;;12.40;40.20;;;;;;5071180;28;20648;-85
2021/04/04 10:01:17;;;;;;;4.23;3.83;;;12.10;38.30;;;;;;5071135;28;20613;-84
2021/04/04 10:03:55;;;;;;;7.67;3.30;;;11.80;39.50;;;;;;5071011;28;20613;-86
2021/04/04 10:06:21;;;;;;;4.67;4.10;;;12.20;40.70;;;;;;5071629;28;20621;-86
2021/04/04 10:08:54;;;;;;;4.93;3.87;;;12.10;38.80;;;;;;5071128;28;21138;-85
2021/04/04 10:11:21;;;;;;;5.40;3.27;;;12.30;39.70;;;;;;5071111;28;20632;-86
2021/04/04 10:13:47;;;;;;;4.40;3.90;;;12.40;38.90;;;;;;5069217;28;20671;-86
2021/04/04 10:16:22;;;;;;;3.43;3.10;;;12.20;37.70;;;;;;5071088;28;21020;-84
2021/04/04 10:19:03;;;;;;;3.97;3.67;;;12.00;38.20;;;;;;5071291;28;20657;-86
2021/04/04 10:21:30;;;;;;;4.57;3.83;;;11.70;38.20;;;;;;5066498;28;20622;-85
2021/04/04 10:23:57;;;;;;;3.53;3.23;;;12.20;39.00;;;;;;5049642;28;20610;-85
2021/04/04 10:26:24;;;;;;;4.57;3.23;;;12.20;37.80;;;;;;5051101;28;20806;-85
2021/04/04 10:28:53;;;;;;;4.70;3.83;;;12.40;37.80;;;;;;5049121;28;20614;-85
2021/04/04 10:31:22;;;;;;;5.17;3.20;;;12.00;37.40;;;;;;5050976;28;20733;-86
2021/04/04 10:34:00;;;;;;;4.23;3.50;;;11.90;38.20;;;;;;5052084;28;20622;-86
2021/04/04 10:36:27;;;;;;;3.60;3.30;;;11.50;38.70;;;;;;5051834;28;20612;-85
2021/04/04 10:38:54;;;;;;;6.10;3.00;;;11.40;38.20;;;;;;5051325;28;20719;-86
2021/04/04 10:41:32;;;;;;;4.20;3.20;;;11.40;37.20;;;;;;5051133;28;20936;-85
2021/04/04 10:43:59;;;;;;;3.43;2.90;;;11.80;37.90;;;;;;5051877;28;20648;-85
2021/04/04 10:46:28;;;;;;;4.37;3.33;;;12.20;37.80;;;;;;5050561;28;20602;-85
2021/04/04 10:48:58;;;;;;;3.47;3.17;;;12.30;36.30;;;;;;5050667;28;20622;-85
2021/04/04 10:51:25;;;;;;;3.37;3.00;;;11.80;36.30;;;;;;5050603;28;20680;-85
2021/04/04 10:53:52;;;;;;;3.23;2.93;;;11.70;36.30;;;;;;5049482;28;20610;-85
2021/04/04 10:56:18;;;;;;;2.97;2.70;;;11.80;36.20;;;;;;5050733;28;20673;-86
2021/04/04 10:58:46;;;;;;;3.50;2.70;;;11.90;36.30;;;;;;5050321;28;20986;-86
2021/04/04 11:01:14;;;;;;;3.10;2.83;;;12.30;36.80;;;;;;5050486;28;20626;-85
2021/04/04 11:03:42;;;;;;;6.03;3.17;;;12.30;36.20;;;;;;5049689;28;21210;-86
2021/04/04 11:06:10;;;;;;;3.57;3.07;;;12.30;35.00;;;;;;5050613;28;20606;-85
2021/04/04 11:08:36;;;;;;;3.40;3.10;;;12.20;35.60;;;;;;5050749;28;20676;-85
2021/04/04 11:11:03;;;;;;;4.43;3.20;;;12.60;35.30;;;;;;5050507;28;21020;-86
2021/04/04 11:13:30;;;;;;;3.20;2.90;;;12.80;35.30;;;;;;5049097;28;21209;-85
2021/04/04 11:15:58;;;;;;;3.50;3.20;;;12.60;35.30;;;;;;5050939;28;21220;-85
2021/04/04 11:18:33;;;;;;;3.80;3.50;;;12.90;35.60;;;;;;5057037;28;20625;-86
2021/04/04 11:21:06;;;;;;;5.60;4.93;;;13.40;36.30;;;;;;5052143;28;21004;-86
2021/04/04 11:23:33;;;;;;;3.30;2.70;;;13.90;35.70;;;;;;5071048;28;20655;-86
2021/04/04 11:26:00;;;;;;;3.83;3.53;;;14.20;35.00;;;;;;5069709;28;20617;-84
2021/04/04 11:28:26;;;;;;;4.10;3.20;;;13.90;35.20;;;;;;5071079;28;21057;-85
2021/04/04 11:30:54;;;;;;;5.30;3.50;;;13.70;34.60;;;;;;5076369;28;20610;-85
2021/04/04 11:33:43;;;;;;;3.43;3.00;;;13.30;34.40;;;;;;5070993;28;20629;-84
2021/04/04 11:36:12;;;;;;;4.97;3.60;;;14.00;35.70;;;;;;5068947;28;20640;-84
2021/04/04 11:38:40;;;;;;;3.10;2.90;;;13.60;34.20;;;;;;5071978;28;20685;-84
2021/04/04 11:41:18;;;;;;;4.63;3.70;;;14.40;35.10;;;;;;5071085;28;20620;-84
2021/04/04 11:43:47;;;;;;;4.07;3.77;;;16.10;33.60;;;;;;5070146;28;20633;-84
2021/04/04 11:46:42;;;;;;;3.90;3.50;;;16.60;32.40;;;;;;5071334;28;20623;-86
2021/04/04 11:49:37;;;;;;;4.43;3.37;;;18.60;31.10;;;;;;5071742;28;21049;-85
2021/04/04 11:52:46;;;;;;;5.27;3.13;;;19.00;29.70;;;;;;5070967;28;20953;-87
2021/04/04 11:55:14;;;;;;;4.93;3.47;;;19.60;30.20;;;;;;5067014;28;20618;-85
2021/04/04 11:57:44;;;;;;;4.20;3.80;;;19.80;29.20;;;;;;5053004;28;20660;-86
2021/04/04 12:00:14;;;;;;;4.10;3.43;;;19.50;29.10;;;;;;5053333;28;20622;-85
2021/04/04 12:02:49;;;;;;;4.10;3.70;;;18.70;28.90;;;;;;5051670;28;20680;-85
2021/04/04 12:05:17;;;;;;;3.83;3.53;;;17.60;30.30;;;;;;5051294;28;20718;-86
2021/04/04 12:07:45;;;;;;;5.67;4.50;;;16.90;31.10;;;;;;5051237;28;20622;-85
2021/04/04 12:10:14;;;;;;;4.20;3.53;;;16.50;31.10;;;;;;5050781;28;20615;-84
2021/04/04 12:12:41;;;;;;;4.07;3.70;;;15.80;31.10;;;;;;5050543;28;21225;-85
2021/04/04 12:15:10;;;;;;;4.30;3.90;;;15.50;32.70;;;;;;5050920;28;20675;-85
2021/04/04 12:17:37;;;;;;;4.43;4.00;;;15.10;32.80;;;;;;5051034;28;20658;-85
2021/04/04 12:20:12;;;;;;;5.70;3.73;;;14.30;32.80;;;;;;5064371;28;20715;-89
2021/04/04 12:22:40;;;;;;;4.77;4.00;;;14.50;34.00;;;;;;5062135;28;20639;-85
2021/04/04 12:25:09;;;;;;;6.27;4.80;;;14.40;35.00;;;;;;5072730;28;20613;-85
2021/04/04 12:27:39;;;;;;;5.20;4.47;;;14.70;34.30;;;;;;5073648;28;20617;-85
2021/04/04 12:30:06;;;;;;;5.50;4.90;;;14.70;34.10;;;;;;5074150;28;20957;-85
2021/04/04 12:32:34;;;;;;;4.60;4.20;;;14.50;34.00;;;;;;5073622;28;20625;-83
2021/04/04 12:35:03;;;;;;;4.80;3.70;;;14.50;33.80;;;;;;5074483;28;20609;-85
2021/04/04 12:37:32;;;;;;;6.43;4.10;;;14.50;34.20;;;;;;5074326;28;20694;-84
2021/04/04 12:40:01;;;;;;;4.80;4.40;;;14.50;33.80;;;;;;5073567;28;20625;-84
2021/04/04 12:42:29;;;;;;;5.73;4.07;;;14.30;33.40;;;;;;5073707;28;20988;-86
2021/04/04 12:44:57;;;;;;;6.97;4.47;;;14.30;34.10;;;;;;5071987;28;21182;-85
2021/04/04 12:47:26;;;;;;;4.00;3.60;;;14.30;34.10;;;;;;5055667;28;20693;-84
2021/04/04 12:49:54;;;;;;;6.27;4.10;;;14.10;34.90;;;;;;5057903;28;20626;-85
2021/04/04 12:52:39;;;;;;;5.33;3.87;;;14.20;34.80;;;;;;5053424;28;20625;-85
2021/04/04 12:55:18;;;;;;;5.23;3.30;;;14.20;34.60;;;;;;5053902;28;20601;-82
2021/04/04 12:57:46;;;;;;;4.17;3.77;;;14.50;35.20;;;;;;5053012;28;20634;-85
2021/04/04 13:00:20;;;;;;;5.23;4.60;;;13.60;35.10;;;;;;5054082;28;21023;-84
2021/04/04 13:02:57;;;;;;;6.07;4.50;;;13.60;35.50;;;;;;5052803;28;20756;-84
2021/04/04 13:05:25;;;;;;;4.43;3.33;;;13.90;35.20;;;;;;5053943;28;20671;-84
2021/04/04 13:07:52;;;;;;;5.23;3.67;;;14.10;34.40;;;;;;5054786;28;20614;-85
2021/04/04 13:10:18;;;;;;;5.60;3.80;;;14.40;34.70;;;;;;5053909;28;20622;-84
2021/04/04 13:12:45;;;;;;;4.20;3.80;;;14.50;33.80;;;;;;5052972;28;20629;-85
2021/04/04 13:15:23;;;;;;;5.40;4.13;;;15.00;33.50;;;;;;5055955;28;20626;-85
2021/04/04 13:17:50;;;;;;;4.20;3.80;;;14.90;31.90;;;;;;5055063;28;20646;-85